sensor_id;sensor_type;location;lat;lon;timestamp;noise_LAeq;noise_LA_min;noise_LA_max;noise_LA01;noise_LA95
71020;Laerm;58902;51.436;5.980;2024-03-06T00:00:06;39.84;29.88;54.52;;
71020;Laerm;58902;51.436;5.980;2024-03-06T00:00:17;35.00;29.42;49.55;;
71020;Laerm;58902;51.436;5.980;2024-03-06T00:00:28;33.13;30.32;36.89;;
71020;Laerm;58902;51.436;5.980;2024-03-06T00:00:38;32.45;29.47;36.68;;
71020;Laerm;58902;51.436;5.980;2024-03-06T00:00:49;30.49;29.15;32.68;;
71020;Laerm;58902;51.436;5.980;2024-03-06T00:00:59;33.99;30.23;38.20;;
71020;Laerm;58902;51.436;5.980;2024-03-06T00:01:09;30.29;28.92;32.50;;
71020;Laerm;58902;51.436;5.980;2024-03-06T00:01:20;30.45;29.01;33.61;;
71020;Laerm;58902;51.436;5.980;2024-03-06T00:01:31;32.13;29.49;35.03;;
71020;Laerm;58902;51.436;5.980;2024-03-06T00:01:41;41.12;33.21;48.61;;
71020;Laerm;58902;51.436;5.980;2024-03-06T00:01:52;34.70;29.37;41.19;;
71020;Laerm;58902;51.436;5.980;2024-03-06T00:02:02;30.24;28.99;33.22;;
71020;Laerm;58902;51.436;5.980;2024-03-06T00:02:12;30.59;29.20;32.97;;
71020;Laerm;58902;51.436;5.980;2024-03-06T00:02:23;30.58;28.93;33.18;;
71020;Laerm;58902;51.436;5.980;2024-03-06T00:02:34;30.33;29.04;32.93;;
71020;Laerm;58902;51.436;5.980;2024-03-06T00:02:44;29.94;28.47;32.42;;
71020;Laerm;58902;51.436;5.980;2024-03-06T00:02:55;30.01;28.98;32.67;;
71020;Laerm;58902;51.436;5.980;2024-03-06T00:03:05;29.83;28.74;33.39;;
71020;Laerm;58902;51.436;5.980;2024-03-06T00:03:16;30.03;28.39;32.07;;
71020;Laerm;58902;51.436;5.980;2024-03-06T00:03:26;29.86;28.73;32.45;;
71020;Laerm;58902;51.436;5.980;2024-03-06T00:03:36;29.82;28.70;33.09;;
71020;Laerm;58902;51.436;5.980;2024-03-06T00:03:47;29.99;28.69;33.08;;
71020;Laerm;58902;51.436;5.980;2024-03-06T00:03:57;29.97;28.88;32.51;;
71020;Laerm;58902;51.436;5.980;2024-03-06T00:04:07;30.12;28.94;32.81;;
71020;Laerm;58902;51.436;5.980;2024-03-06T00:04:18;29.92;28.81;32.91;;
71020;Laerm;58902;51.436;5.980;2024-03-06T00:04:28;30.06;29.03;33.32;;
71020;Laerm;58902;51.436;5.980;2024-03-06T00:04:39;29.98;28.64;33.52;;
71020;Laerm;58902;51.436;5.980;2024-03-06T00:04:49;29.90;28.82;32.46;;
71020;Laerm;58902;51.436;5.980;2024-03-06T00:05:00;30.09;28.79;32.46;;
71020;Laerm;58902;51.436;5.980;2024-03-06T00:05:10;31.07;29.94;33.45;;
71020;Laerm;58902;51.436;5.980;2024-03-06T00:05:20;31.13;29.69;33.19;;
71020;Laerm;58902;51.436;5.980;2024-03-06T00:05:31;31.04;29.47;33.38;;
71020;Laerm;58902;51.436;5.980;2024-03-06T00:05:41;30.44;29.27;32.33;;
71020;Laerm;58902;51.436;5.980;2024-03-06T00:05:52;30.68;29.56;33.19;;
71020;Laerm;58902;51.436;5.980;2024-03-06T00:06:02;31.02;29.13;34.19;;
71020;Laerm;58902;51.436;5.980;2024-03-06T00:06:13;32.74;31.12;35.03;;
71020;Laerm;58902;51.436;5.980;2024-03-06T00:06:23;32.14;30.66;35.46;;
71020;Laerm;58902;51.436;5.980;2024-03-06T00:06:34;32.84;29.97;39.41;;
71020;Laerm;58902;51.436;5.980;2024-03-06T00:06:45;31.36;29.72;33.85;;
71020;Laerm;58902;51.436;5.980;2024-03-06T00:06:55;31.57;30.26;33.53;;
71020;Laerm;58902;51.436;5.980;2024-03-06T00:07:06;34.79;30.13;40.92;;
71020;Laerm;58902;51.436;5.980;2024-03-06T00:07:16;33.33;31.88;36.25;;
71020;Laerm;58902;51.436;5.980;2024-03-06T00:07:26;32.88;31.28;35.27;;
71020;Laerm;58902;51.436;5.980;2024-03-06T00:07:37;33.82;29.72;38.62;;
71020;Laerm;58902;51.436;5.980;2024-03-06T00:07:47;31.95;30.65;34.73;;
71020;Laerm;58902;51.436;5.980;2024-03-06T00:07:57;31.97;30.61;35.46;;
71020;Laerm;58902;51.436;5.980;2024-03-06T00:08:08;38.44;34.27;39.39;;
71020;Laerm;58902;51.436;5.980;2024-03-06T00:08:18;38.29;37.37;39.03;;
71020;Laerm;58902;51.436;5.980;2024-03-06T00:08:29;37.31;31.54;38.84;;
71020;Laerm;58902;51.436;5.980;2024-03-06T00:08:39;32.49;30.96;34.36;;
71020;Laerm;58902;51.436;5.980;2024-03-06T00:08:49;32.67;31.51;34.24;;
71020;Laerm;58902;51.436;5.980;2024-03-06T00:09:00;34.13;30.89;38.49;;
71020;Laerm;58902;51.436;5.980;2024-03-06T00:09:12;31.67;30.05;34.24;;
71020;Laerm;58902;51.436;5.980;2024-03-06T00:09:23;31.46;29.99;33.82;;
71020;Laerm;58902;51.436;5.980;2024-03-06T00:09:33;31.71;30.32;33.54;;
71020;Laerm;58902;51.436;5.980;2024-03-06T00:09:44;31.89;30.09;34.14;;
71020;Laerm;58902;51.436;5.980;2024-03-06T00:09:54;31.94;29.90;34.29;;
71020;Laerm;58902;51.436;5.980;2024-03-06T00:10:05;31.68;29.94;34.00;;
71020;Laerm;58902;51.436;5.980;2024-03-06T00:10:15;31.64;30.38;33.44;;
71020;Laerm;58902;51.436;5.980;2024-03-06T00:10:26;33.14;30.82;34.64;;
71020;Laerm;58902;51.436;5.980;2024-03-06T00:10:36;32.95;30.69;39.60;;
71020;Laerm;58902;51.436;5.980;2024-03-06T00:10:46;32.15;30.93;34.73;;
71020;Laerm;58902;51.436;5.980;2024-03-06T00:10:57;33.28;30.17;35.55;;
71020;Laerm;58902;51.436;5.980;2024-03-06T00:11:07;30.68;29.39;33.28;;
71020;Laerm;58902;51.436;5.980;2024-03-06T00:11:18;31.04;29.58;32.94;;
71020;Laerm;58902;51.436;5.980;2024-03-06T00:11:28;31.08;29.31;33.41;;
71020;Laerm;58902;51.436;5.980;2024-03-06T00:11:39;32.00;30.69;34.25;;
71020;Laerm;58902;51.436;5.980;2024-03-06T00:11:50;31.63;29.60;33.96;;
71020;Laerm;58902;51.436;5.980;2024-03-06T00:12:01;30.67;29.20;33.59;;
71020;Laerm;58902;51.436;5.980;2024-03-06T00:12:11;30.79;28.81;32.68;;
71020;Laerm;58902;51.436;5.980;2024-03-06T00:12:21;30.84;28.80;34.45;;
71020;Laerm;58902;51.436;5.980;2024-03-06T00:12:32;30.07;28.75;33.32;;
71020;Laerm;58902;51.436;5.980;2024-03-06T00:12:42;30.40;29.04;32.92;;
71020;Laerm;58902;51.436;5.980;2024-03-06T00:12:53;30.32;29.01;33.99;;
71020;Laerm;58902;51.436;5.980;2024-03-06T00:13:03;30.99;28.55;33.95;;
71020;Laerm;58902;51.436;5.980;2024-03-06T00:13:14;31.75;28.88;37.53;;
71020;Laerm;58902;51.436;5.980;2024-03-06T00:13:25;31.47;28.92;36.98;;
71020;Laerm;58902;51.436;5.980;2024-03-06T00:13:35;31.32;28.90;37.87;;
71020;Laerm;58902;51.436;5.980;2024-03-06T00:13:46;30.81;28.84;43.52;;
71020;Laerm;58902;51.436;5.980;2024-03-06T00:13:57;31.38;28.75;36.21;;
71020;Laerm;58902;51.436;5.980;2024-03-06T00:14:08;30.96;29.12;34.39;;
71020;Laerm;58902;51.436;5.980;2024-03-06T00:14:19;30.94;29.44;34.83;;
71020;Laerm;58902;51.436;5.980;2024-03-06T00:14:29;29.99;28.61;32.85;;
71020;Laerm;58902;51.436;5.980;2024-03-06T00:14:40;29.83;28.66;32.90;;
71020;Laerm;58902;51.436;5.980;2024-03-06T00:14:50;29.93;28.57;32.46;;
71020;Laerm;58902;51.436;5.980;2024-03-06T00:15:00;29.72;28.49;32.58;;
71020;Laerm;58902;51.436;5.980;2024-03-06T00:15:12;29.60;28.29;32.12;;
71020;Laerm;58902;51.436;5.980;2024-03-06T00:15:22;29.51;28.58;32.47;;
71020;Laerm;58902;51.436;5.980;2024-03-06T00:15:33;29.64;28.37;32.54;;
71020;Laerm;58902;51.436;5.980;2024-03-06T00:15:44;29.75;28.43;32.42;;
71020;Laerm;58902;51.436;5.980;2024-03-06T00:15:55;29.58;28.20;32.83;;
71020;Laerm;58902;51.436;5.980;2024-03-06T00:16:05;29.39;28.44;32.43;;
71020;Laerm;58902;51.436;5.980;2024-03-06T00:16:16;29.46;28.35;32.87;;
71020;Laerm;58902;51.436;5.980;2024-03-06T00:16:26;29.44;28.39;31.67;;
71020;Laerm;58902;51.436;5.980;2024-03-06T00:16:37;29.48;28.13;31.82;;
71020;Laerm;58902;51.436;5.980;2024-03-06T00:16:48;29.56;28.46;32.39;;
71020;Laerm;58902;51.436;5.980;2024-03-06T00:17:02;29.68;28.49;32.46;;
71020;Laerm;58902;51.436;5.980;2024-03-06T00:17:14;29.62;28.36;32.33;;
71020;Laerm;58902;51.436;5.980;2024-03-06T00:17:25;29.53;28.28;32.77;;
71020;Laerm;58902;51.436;5.980;2024-03-06T00:17:37;29.59;28.61;32.07;;
71020;Laerm;58902;51.436;5.980;2024-03-06T00:17:47;29.71;28.64;32.46;;
71020;Laerm;58902;51.436;5.980;2024-03-06T00:17:58;29.84;28.67;32.79;;
71020;Laerm;58902;51.436;5.980;2024-03-06T00:18:08;29.45;28.31;32.40;;
71020;Laerm;58902;51.436;5.980;2024-03-06T00:18:20;29.34;28.13;33.08;;
71020;Laerm;58902;51.436;5.980;2024-03-06T00:18:30;29.27;28.07;31.85;;
71020;Laerm;58902;51.436;5.980;2024-03-06T00:18:41;29.26;28.30;32.54;;
71020;Laerm;58902;51.436;5.980;2024-03-06T00:18:51;29.40;28.18;32.45;;
71020;Laerm;58902;51.436;5.980;2024-03-06T00:19:02;29.41;27.86;31.83;;
71020;Laerm;58902;51.436;5.980;2024-03-06T00:19:12;29.40;27.96;31.98;;
71020;Laerm;58902;51.436;5.980;2024-03-06T00:19:23;29.51;27.91;33.26;;
71020;Laerm;58902;51.436;5.980;2024-03-06T00:19:34;30.05;28.35;35.58;;
71020;Laerm;58902;51.436;5.980;2024-03-06T00:19:44;29.89;28.49;32.63;;
71020;Laerm;58902;51.436;5.980;2024-03-06T00:19:54;30.51;28.88;33.26;;
71020;Laerm;58902;51.436;5.980;2024-03-06T00:20:05;30.84;29.64;33.14;;
71020;Laerm;58902;51.436;5.980;2024-03-06T00:20:16;30.75;28.95;33.10;;
71020;Laerm;58902;51.436;5.980;2024-03-06T00:20:26;30.95;29.50;33.32;;
71020;Laerm;58902;51.436;5.980;2024-03-06T00:20:38;30.80;29.32;33.09;;
71020;Laerm;58902;51.436;5.980;2024-03-06T00:20:48;30.87;29.44;33.45;;
71020;Laerm;58902;51.436;5.980;2024-03-06T00:20:58;30.62;29.32;33.07;;
71020;Laerm;58902;51.436;5.980;2024-03-06T00:21:09;30.62;29.22;33.35;;
71020;Laerm;58902;51.436;5.980;2024-03-06T00:21:20;30.80;29.33;33.11;;
71020;Laerm;58902;51.436;5.980;2024-03-06T00:21:30;30.85;29.18;33.47;;
71020;Laerm;58902;51.436;5.980;2024-03-06T00:21:41;32.23;29.52;37.60;;
71020;Laerm;58902;51.436;5.980;2024-03-06T00:21:51;32.42;30.84;35.03;;
71020;Laerm;58902;51.436;5.980;2024-03-06T00:22:02;32.51;31.44;34.22;;
71020;Laerm;58902;51.436;5.980;2024-03-06T00:22:12;34.34;29.81;40.96;;
71020;Laerm;58902;51.436;5.980;2024-03-06T00:22:23;37.65;36.20;39.08;;
71020;Laerm;58902;51.436;5.980;2024-03-06T00:22:33;37.36;36.06;39.33;;
71020;Laerm;58902;51.436;5.980;2024-03-06T00:22:43;33.15;30.48;38.28;;
71020;Laerm;58902;51.436;5.980;2024-03-06T00:22:57;32.36;30.86;34.78;;
71020;Laerm;58902;51.436;5.980;2024-03-06T00:23:09;32.67;30.60;35.41;;
71020;Laerm;58902;51.436;5.980;2024-03-06T00:23:19;32.56;30.47;34.61;;
71020;Laerm;58902;51.436;5.980;2024-03-06T00:23:30;32.75;31.28;34.27;;
71020;Laerm;58902;51.436;5.980;2024-03-06T00:23:41;32.32;30.35;33.92;;
71020;Laerm;58902;51.436;5.980;2024-03-06T00:23:51;31.52;29.82;33.21;;
71020;Laerm;58902;51.436;5.980;2024-03-06T00:24:02;31.23;29.81;33.89;;
71020;Laerm;58902;51.436;5.980;2024-03-06T00:24:14;31.15;29.82;33.16;;
71020;Laerm;58902;51.436;5.980;2024-03-06T00:24:25;31.05;29.80;33.12;;
71020;Laerm;58902;51.436;5.980;2024-03-06T00:24:35;31.17;29.85;33.92;;
71020;Laerm;58902;51.436;5.980;2024-03-06T00:24:45;31.80;30.33;34.78;;
71020;Laerm;58902;51.436;5.980;2024-03-06T00:24:57;31.77;30.40;33.87;;
71020;Laerm;58902;51.436;5.980;2024-03-06T00:25:07;32.21;30.83;34.27;;
71020;Laerm;58902;51.436;5.980;2024-03-06T00:25:18;32.10;30.76;34.84;;
71020;Laerm;58902;51.436;5.980;2024-03-06T00:25:29;32.17;30.46;33.95;;
71020;Laerm;58902;51.436;5.980;2024-03-06T00:25:39;32.65;31.18;34.25;;
71020;Laerm;58902;51.436;5.980;2024-03-06T00:25:49;33.01;31.90;34.96;;
71020;Laerm;58902;51.436;5.980;2024-03-06T00:26:00;32.55;31.34;34.60;;
71020;Laerm;58902;51.436;5.980;2024-03-06T00:26:10;35.81;30.42;37.27;;
71020;Laerm;58902;51.436;5.980;2024-03-06T00:26:21;35.25;33.13;37.14;;
71020;Laerm;58902;51.436;5.980;2024-03-06T00:26:31;34.52;32.82;35.99;;
71020;Laerm;58902;51.436;5.980;2024-03-06T00:26:45;33.66;30.78;36.33;;
71020;Laerm;58902;51.436;5.980;2024-03-06T00:26:55;34.14;32.46;35.82;;
71020;Laerm;58902;51.436;5.980;2024-03-06T00:27:06;33.29;29.60;36.75;;
71020;Laerm;58902;51.436;5.980;2024-03-06T00:27:16;31.03;29.53;32.48;;
71020;Laerm;58902;51.436;5.980;2024-03-06T00:27:26;31.08;29.62;33.88;;
71020;Laerm;58902;51.436;5.980;2024-03-06T00:27:37;31.51;30.01;33.53;;
71020;Laerm;58902;51.436;5.980;2024-03-06T00:27:47;32.68;30.16;34.55;;
71020;Laerm;58902;51.436;5.980;2024-03-06T00:27:57;33.74;31.88;35.51;;
71020;Laerm;58902;51.436;5.980;2024-03-06T00:28:08;32.63;29.84;34.33;;
71020;Laerm;58902;51.436;5.980;2024-03-06T00:28:18;31.94;30.65;34.50;;
71020;Laerm;58902;51.436;5.980;2024-03-06T00:28:28;31.38;29.96;33.55;;
71020;Laerm;58902;51.436;5.980;2024-03-06T00:28:39;30.45;28.90;33.33;;
71020;Laerm;58902;51.436;5.980;2024-03-06T00:28:50;29.79;28.59;33.00;;
71020;Laerm;58902;51.436;5.980;2024-03-06T00:29:03;30.00;28.69;34.26;;
71020;Laerm;58902;51.436;5.980;2024-03-06T00:29:13;30.00;28.44;33.33;;
71020;Laerm;58902;51.436;5.980;2024-03-06T00:29:25;29.62;28.47;32.59;;
71020;Laerm;58902;51.436;5.980;2024-03-06T00:29:35;29.74;28.29;36.31;;
71020;Laerm;58902;51.436;5.980;2024-03-06T00:29:48;29.43;28.42;32.90;;
71020;Laerm;58902;51.436;5.980;2024-03-06T00:29:58;29.45;28.18;32.49;;
71020;Laerm;58902;51.436;5.980;2024-03-06T00:30:08;29.58;28.05;33.61;;
71020;Laerm;58902;51.436;5.980;2024-03-06T00:30:19;29.43;28.29;31.94;;
71020;Laerm;58902;51.436;5.980;2024-03-06T00:30:29;29.45;28.03;33.21;;
71020;Laerm;58902;51.436;5.980;2024-03-06T00:30:40;29.61;28.37;32.16;;
71020;Laerm;58902;51.436;5.980;2024-03-06T00:30:50;29.73;28.64;32.15;;
71020;Laerm;58902;51.436;5.980;2024-03-06T00:31:00;29.55;28.50;32.44;;
71020;Laerm;58902;51.436;5.980;2024-03-06T00:31:11;39.96;28.39;53.59;;
71020;Laerm;58902;51.436;5.980;2024-03-06T00:31:21;29.56;28.46;31.70;;
71020;Laerm;58902;51.436;5.980;2024-03-06T00:31:32;29.47;28.20;31.90;;
71020;Laerm;58902;51.436;5.980;2024-03-06T00:31:43;29.61;28.38;33.32;;
71020;Laerm;58902;51.436;5.980;2024-03-06T00:31:53;29.63;28.51;32.19;;
71020;Laerm;58902;51.436;5.980;2024-03-06T00:32:04;29.67;28.39;32.42;;
71020;Laerm;58902;51.436;5.980;2024-03-06T00:32:15;29.54;28.18;32.16;;
71020;Laerm;58902;51.436;5.980;2024-03-06T00:32:25;29.61;28.42;32.90;;
71020;Laerm;58902;51.436;5.980;2024-03-06T00:32:35;29.50;28.40;32.14;;
71020;Laerm;58902;51.436;5.980;2024-03-06T00:32:46;29.65;28.36;32.19;;
71020;Laerm;58902;51.436;5.980;2024-03-06T00:32:56;29.59;28.32;32.34;;
71020;Laerm;58902;51.436;5.980;2024-03-06T00:33:06;29.50;28.33;33.58;;
71020;Laerm;58902;51.436;5.980;2024-03-06T00:33:17;30.02;28.23;33.17;;
71020;Laerm;58902;51.436;5.980;2024-03-06T00:33:27;30.25;28.87;33.37;;
71020;Laerm;58902;51.436;5.980;2024-03-06T00:33:38;30.54;29.02;33.54;;
71020;Laerm;58902;51.436;5.980;2024-03-06T00:33:48;39.95;29.86;45.10;;
71020;Laerm;58902;51.436;5.980;2024-03-06T00:33:58;39.04;32.23;44.56;;
71020;Laerm;58902;51.436;5.980;2024-03-06T00:34:09;35.63;33.28;38.51;;
71020;Laerm;58902;51.436;5.980;2024-03-06T00:34:20;41.13;35.95;47.43;;
71020;Laerm;58902;51.436;5.980;2024-03-06T00:34:30;69.52;44.10;84.04;;
71020;Laerm;58902;51.436;5.980;2024-03-06T00:34:41;75.65;71.99;84.78;;
71020;Laerm;58902;51.436;5.980;2024-03-06T00:34:52;72.93;44.84;77.98;;
71020;Laerm;58902;51.436;5.980;2024-03-06T00:35:02;39.91;33.09;45.91;;
71020;Laerm;58902;51.436;5.980;2024-03-06T00:35:14;31.97;29.70;35.80;;
71020;Laerm;58902;51.436;5.980;2024-03-06T00:35:27;30.79;28.94;35.06;;
71020;Laerm;58902;51.436;5.980;2024-03-06T00:35:38;30.56;29.06;33.67;;
71020;Laerm;58902;51.436;5.980;2024-03-06T00:35:49;31.06;29.67;33.59;;
71020;Laerm;58902;51.436;5.980;2024-03-06T00:35:59;32.72;30.42;37.57;;
71020;Laerm;58902;51.436;5.980;2024-03-06T00:36:09;31.89;30.07;37.00;;
71020;Laerm;58902;51.436;5.980;2024-03-06T00:36:20;31.32;29.58;33.39;;
71020;Laerm;58902;51.436;5.980;2024-03-06T00:36:32;30.85;29.41;33.17;;
71020;Laerm;58902;51.436;5.980;2024-03-06T00:36:43;30.95;29.27;33.20;;
71020;Laerm;58902;51.436;5.980;2024-03-06T00:36:54;31.20;29.80;34.18;;
71020;Laerm;58902;51.436;5.980;2024-03-06T00:37:04;30.73;29.41;34.26;;
71020;Laerm;58902;51.436;5.980;2024-03-06T00:37:15;30.49;28.86;32.96;;
71020;Laerm;58902;51.436;5.980;2024-03-06T00:37:25;30.37;29.08;33.79;;
71020;Laerm;58902;51.436;5.980;2024-03-06T00:37:35;30.48;29.19;34.04;;
71020;Laerm;58902;51.436;5.980;2024-03-06T00:37:46;30.65;29.22;33.11;;
71020;Laerm;58902;51.436;5.980;2024-03-06T00:37:56;31.22;29.68;33.61;;
71020;Laerm;58902;51.436;5.980;2024-03-06T00:38:06;30.87;29.53;33.08;;
71020;Laerm;58902;51.436;5.980;2024-03-06T00:38:17;30.80;29.48;33.14;;
71020;Laerm;58902;51.436;5.980;2024-03-06T00:38:27;30.88;29.60;33.56;;
71020;Laerm;58902;51.436;5.980;2024-03-06T00:38:38;30.79;29.43;33.50;;
71020;Laerm;58902;51.436;5.980;2024-03-06T00:38:48;30.75;29.39;33.84;;
71020;Laerm;58902;51.436;5.980;2024-03-06T00:38:58;30.77;29.54;32.93;;
71020;Laerm;58902;51.436;5.980;2024-03-06T00:39:09;30.81;29.40;33.22;;
71020;Laerm;58902;51.436;5.980;2024-03-06T00:39:20;31.05;29.31;32.98;;
71020;Laerm;58902;51.436;5.980;2024-03-06T00:39:31;31.23;29.93;33.00;;
71020;Laerm;58902;51.436;5.980;2024-03-06T00:39:42;31.25;29.67;33.48;;
71020;Laerm;58902;51.436;5.980;2024-03-06T00:39:53;34.09;30.37;35.79;;
71020;Laerm;58902;51.436;5.980;2024-03-06T00:40:03;34.66;33.44;35.93;;
71020;Laerm;58902;51.436;5.980;2024-03-06T00:40:14;34.49;31.46;35.94;;
71020;Laerm;58902;51.436;5.980;2024-03-06T00:40:24;31.01;29.45;33.66;;
71020;Laerm;58902;51.436;5.980;2024-03-06T00:40:34;31.01;29.90;33.45;;
71020;Laerm;58902;51.436;5.980;2024-03-06T00:40:45;30.93;29.76;32.87;;
71020;Laerm;58902;51.436;5.980;2024-03-06T00:40:55;31.26;29.90;33.43;;
71020;Laerm;58902;51.436;5.980;2024-03-06T00:41:07;33.99;31.46;35.70;;
71020;Laerm;58902;51.436;5.980;2024-03-06T00:41:17;34.68;31.36;38.74;;
71020;Laerm;58902;51.436;5.980;2024-03-06T00:41:28;35.10;33.55;36.38;;
71020;Laerm;58902;51.436;5.980;2024-03-06T00:41:38;34.84;33.46;36.34;;
71020;Laerm;58902;51.436;5.980;2024-03-06T00:41:48;33.24;30.21;36.05;;
71020;Laerm;58902;51.436;5.980;2024-03-06T00:41:59;32.17;30.86;34.61;;
71020;Laerm;58902;51.436;5.980;2024-03-06T00:42:09;32.34;31.12;33.94;;
71020;Laerm;58902;51.436;5.980;2024-03-06T00:42:20;32.27;29.71;34.06;;
71020;Laerm;58902;51.436;5.980;2024-03-06T00:42:30;32.41;30.90;34.27;;
71020;Laerm;58902;51.436;5.980;2024-03-06T00:42:41;31.86;30.59;34.71;;
71020;Laerm;58902;51.436;5.980;2024-03-06T00:42:52;32.00;29.89;34.60;;
71020;Laerm;58902;51.436;5.980;2024-03-06T00:43:02;31.51;30.11;33.18;;
71020;Laerm;58902;51.436;5.980;2024-03-06T00:43:12;31.63;30.37;34.28;;
71020;Laerm;58902;51.436;5.980;2024-03-06T00:43:23;34.43;31.66;39.15;;
71020;Laerm;58902;51.436;5.980;2024-03-06T00:43:34;32.50;30.82;34.31;;
71020;Laerm;58902;51.436;5.980;2024-03-06T00:43:44;33.20;31.77;36.78;;
71020;Laerm;58902;51.436;5.980;2024-03-06T00:43:55;35.91;34.45;37.55;;
71020;Laerm;58902;51.436;5.980;2024-03-06T00:44:05;35.87;34.74;36.80;;
71020;Laerm;58902;51.436;5.980;2024-03-06T00:44:16;35.27;31.06;36.90;;
71020;Laerm;58902;51.436;5.980;2024-03-06T00:44:27;33.97;30.17;39.08;;
71020;Laerm;58902;51.436;5.980;2024-03-06T00:44:37;33.32;30.26;39.79;;
71020;Laerm;58902;51.436;5.980;2024-03-06T00:44:48;32.11;29.83;42.59;;
71020;Laerm;58902;51.436;5.980;2024-03-06T00:44:58;30.91;29.22;33.76;;
71020;Laerm;58902;51.436;5.980;2024-03-06T00:45:09;30.72;29.27;32.66;;
71020;Laerm;58902;51.436;5.980;2024-03-06T00:45:19;30.75;29.41;33.47;;
71020;Laerm;58902;51.436;5.980;2024-03-06T00:45:29;30.68;29.50;33.37;;
71020;Laerm;58902;51.436;5.980;2024-03-06T00:45:40;30.68;29.51;33.80;;
71020;Laerm;58902;51.436;5.980;2024-03-06T00:45:50;30.64;29.31;33.13;;
71020;Laerm;58902;51.436;5.980;2024-03-06T00:46:01;30.21;28.98;32.29;;
71020;Laerm;58902;51.436;5.980;2024-03-06T00:46:11;30.15;28.85;32.41;;
71020;Laerm;58902;51.436;5.980;2024-03-06T00:46:22;30.19;28.84;33.20;;
71020;Laerm;58902;51.436;5.980;2024-03-06T00:46:32;29.88;28.66;32.34;;
71020;Laerm;58902;51.436;5.980;2024-03-06T00:46:43;30.09;28.48;32.83;;
71020;Laerm;58902;51.436;5.980;2024-03-06T00:46:53;30.01;28.85;32.31;;
71020;Laerm;58902;51.436;5.980;2024-03-06T00:47:04;29.96;28.45;32.72;;
71020;Laerm;58902;51.436;5.980;2024-03-06T00:47:14;30.07;28.76;32.76;;
71020;Laerm;58902;51.436;5.980;2024-03-06T00:47:24;30.16;28.79;33.47;;
71020;Laerm;58902;51.436;5.980;2024-03-06T00:47:35;29.90;28.54;32.29;;
71020;Laerm;58902;51.436;5.980;2024-03-06T00:47:46;29.76;28.77;33.26;;
71020;Laerm;58902;51.436;5.980;2024-03-06T00:47:56;29.83;28.20;31.92;;
71020;Laerm;58902;51.436;5.980;2024-03-06T00:48:06;30.01;28.65;32.62;;
71020;Laerm;58902;51.436;5.980;2024-03-06T00:48:17;30.29;28.66;32.60;;
71020;Laerm;58902;51.436;5.980;2024-03-06T00:48:30;30.26;28.66;32.62;;
71020;Laerm;58902;51.436;5.980;2024-03-06T00:48:40;30.42;29.21;33.34;;
71020;Laerm;58902;51.436;5.980;2024-03-06T00:48:50;30.49;29.16;34.30;;
71020;Laerm;58902;51.436;5.980;2024-03-06T00:49:01;30.11;28.68;33.06;;
71020;Laerm;58902;51.436;5.980;2024-03-06T00:49:11;29.99;28.70;32.50;;
71020;Laerm;58902;51.436;5.980;2024-03-06T00:49:22;29.94;28.73;32.76;;
71020;Laerm;58902;51.436;5.980;2024-03-06T00:49:32;30.04;28.81;32.39;;
71020;Laerm;58902;51.436;5.980;2024-03-06T00:49:42;30.18;28.93;34.51;;
71020;Laerm;58902;51.436;5.980;2024-03-06T00:49:53;30.04;28.88;32.46;;
71020;Laerm;58902;51.436;5.980;2024-03-06T00:50:03;30.14;28.90;33.49;;
71020;Laerm;58902;51.436;5.980;2024-03-06T00:50:17;29.88;28.52;32.40;;
71020;Laerm;58902;51.436;5.980;2024-03-06T00:50:28;30.17;28.84;33.32;;
71020;Laerm;58902;51.436;5.980;2024-03-06T00:50:39;30.37;29.21;33.53;;
71020;Laerm;58902;51.436;5.980;2024-03-06T00:50:49;30.47;28.75;32.76;;
71020;Laerm;58902;51.436;5.980;2024-03-06T00:50:59;30.31;29.05;33.50;;
71020;Laerm;58902;51.436;5.980;2024-03-06T00:51:10;30.36;29.15;32.43;;
71020;Laerm;58902;51.436;5.980;2024-03-06T00:51:20;30.31;29.08;32.55;;
71020;Laerm;58902;51.436;5.980;2024-03-06T00:51:31;30.13;28.94;33.52;;
71020;Laerm;58902;51.436;5.980;2024-03-06T00:51:41;30.04;28.75;32.89;;
71020;Laerm;58902;51.436;5.980;2024-03-06T00:51:52;29.97;28.82;32.47;;
71020;Laerm;58902;51.436;5.980;2024-03-06T00:52:02;30.09;28.81;31.89;;
71020;Laerm;58902;51.436;5.980;2024-03-06T00:52:14;29.91;28.48;32.69;;
71020;Laerm;58902;51.436;5.980;2024-03-06T00:52:24;30.24;28.88;33.07;;
71020;Laerm;58902;51.436;5.980;2024-03-06T00:52:34;30.90;29.37;33.00;;
71020;Laerm;58902;51.436;5.980;2024-03-06T00:52:45;31.29;29.92;32.85;;
71020;Laerm;58902;51.436;5.980;2024-03-06T00:52:55;33.09;30.24;35.50;;
71020;Laerm;58902;51.436;5.980;2024-03-06T00:53:06;31.47;29.68;34.49;;
71020;Laerm;58902;51.436;5.980;2024-03-06T00:53:16;31.99;29.95;33.58;;
71020;Laerm;58902;51.436;5.980;2024-03-06T00:53:26;30.91;29.36;34.67;;
71020;Laerm;58902;51.436;5.980;2024-03-06T00:53:37;30.45;29.23;34.49;;
71020;Laerm;58902;51.436;5.980;2024-03-06T00:53:47;30.57;29.41;34.30;;
71020;Laerm;58902;51.436;5.980;2024-03-06T00:53:57;31.55;29.89;34.33;;
71020;Laerm;58902;51.436;5.980;2024-03-06T00:54:08;36.12;31.91;41.65;;
71020;Laerm;58902;51.436;5.980;2024-03-06T00:54:18;37.76;31.03;44.04;;
71020;Laerm;58902;51.436;5.980;2024-03-06T00:54:28;31.29;29.76;33.79;;
71020;Laerm;58902;51.436;5.980;2024-03-06T00:54:39;30.98;29.82;33.38;;
71020;Laerm;58902;51.436;5.980;2024-03-06T00:54:49;31.08;29.79;33.02;;
71020;Laerm;58902;51.436;5.980;2024-03-06T00:55:00;31.68;29.62;33.67;;
71020;Laerm;58902;51.436;5.980;2024-03-06T00:55:10;32.04;30.24;34.76;;
71020;Laerm;58902;51.436;5.980;2024-03-06T00:55:20;30.92;29.68;33.46;;
71020;Laerm;58902;51.436;5.980;2024-03-06T00:55:31;31.09;29.70;33.13;;
71020;Laerm;58902;51.436;5.980;2024-03-06T00:55:41;31.77;30.59;34.40;;
71020;Laerm;58902;51.436;5.980;2024-03-06T00:55:51;32.11;30.62;34.14;;
71020;Laerm;58902;51.436;5.980;2024-03-06T00:56:02;32.42;30.60;35.14;;
71020;Laerm;58902;51.436;5.980;2024-03-06T00:56:12;32.49;30.45;34.14;;
71020;Laerm;58902;51.436;5.980;2024-03-06T00:56:23;33.27;30.76;34.52;;
71020;Laerm;58902;51.436;5.980;2024-03-06T00:56:36;32.99;30.86;35.22;;
71020;Laerm;58902;51.436;5.980;2024-03-06T00:56:47;32.63;30.87;34.58;;
71020;Laerm;58902;51.436;5.980;2024-03-06T00:56:57;33.35;31.23;35.69;;
71020;Laerm;58902;51.436;5.980;2024-03-06T00:57:08;31.70;30.28;33.53;;
71020;Laerm;58902;51.436;5.980;2024-03-06T00:57:19;31.43;30.13;33.34;;
71020;Laerm;58902;51.436;5.980;2024-03-06T00:57:29;31.72;30.25;34.08;;
71020;Laerm;58902;51.436;5.980;2024-03-06T00:57:40;35.16;33.31;36.83;;
71020;Laerm;58902;51.436;5.980;2024-03-06T00:57:50;35.36;32.77;37.13;;
71020;Laerm;58902;51.436;5.980;2024-03-06T00:58:00;35.67;31.33;39.28;;
71020;Laerm;58902;51.436;5.980;2024-03-06T00:58:11;36.91;35.52;38.06;;
71020;Laerm;58902;51.436;5.980;2024-03-06T00:58:22;35.26;33.59;37.69;;
71020;Laerm;58902;51.436;5.980;2024-03-06T00:58:32;33.22;29.98;36.76;;
71020;Laerm;58902;51.436;5.980;2024-03-06T00:58:42;32.01;30.64;34.41;;
71020;Laerm;58902;51.436;5.980;2024-03-06T00:58:53;31.97;30.88;33.26;;
71020;Laerm;58902;51.436;5.980;2024-03-06T00:59:04;31.73;30.18;34.29;;
71020;Laerm;58902;51.436;5.980;2024-03-06T00:59:14;31.82;30.57;33.46;;
71020;Laerm;58902;51.436;5.980;2024-03-06T00:59:25;33.19;31.27;34.46;;